Impacts METAR Board
IDs:

KDTW - Detroit Metro/Wayne, MI, US

Updated at: 2200 UTC 02 Oct 2022
Potential Impact None Slight Moderate High
Time 02/10Z 02/11Z 02/12Z 02/13Z 02/14Z 02/15Z 02/16Z 02/17Z 02/18Z 02/19Z 02/20Z 02/21Z 02/22Z
Temp57 58 55 55 57 58 61 63 64 66 67 66 64
Dewpt52 50 46 44 43 43 44 45 42 40 36 36 32
Altim30.23 30.25 30.27 30.30 30.31 30.33 30.34 30.33 30.32 30.31 30.30 30.30 30.31
VIS10 10 10 10 10 10 10 10 10 10 10 10 10
CIG25 23 28 -- -- -- -- -- -- -- -- -- --
CoverOVCOVCBKNFEWFEWFEWSCTSCTFEWFEWFEWFEWFEW
FltCatMVFRMVFRMVFRVFRVFRVFRVFRVFRVFRVFRVFRVFRVFR
WX--------------------------
WDir30205040403020304030502040
WSpd7 12 15 13 11 12 12 15 8 13 11 14 9
WGst-- 18 21 20 20 -- -- 20 -- 19 -- 22 --
Raw hourly METARs
KDTW 020953Z 03007KT 10SM SCT015 OVC025 14/11 A3023 RMK AO2 SLP236 T01390111
KDTW 021053Z 02012G18KT 10SM FEW015 OVC023 14/10 A3025 RMK AO2 SLP243 T01440100
KDTW 021153Z 05015G21KT 10SM FEW020 BKN028 13/08 A3027 RMK AO2 SLP251 T01280078 10144 20128 53019
KDTW 021253Z 04013G20KT 10SM FEW025 13/07 A3030 RMK AO2 SLP260 T01280067
KDTW 021353Z 04011G20KT 10SM FEW025 FEW250 14/06 A3031 RMK AO2 SLP263 T01390061
KDTW 021453Z 03012KT 10SM FEW030 FEW080 14/06 A3033 RMK AO2 SLP272 T01440061 53020
KDTW 021553Z 02012KT 10SM SCT032 SCT055 16/07 A3034 RMK AO2 SLP273 T01610067
KDTW 021653Z 03015G20KT 10SM SCT033 SCT055 17/07 A3033 RMK AO2 SLP269 T01720072
KDTW 021753Z 04008KT 10SM FEW035 18/06 A3032 RMK AO2 SLP269 T01780056 10183 20128 58003
KDTW 021853Z 03013G19KT 10SM FEW035 FEW250 19/04 A3031 RMK AO2 SLP262 T01890044
KDTW 021953Z 05011KT 10SM FEW250 19/02 A3030 RMK AO2 SLP261 T01940022
KDTW 022053Z 02014G22KT 10SM FEW030 FEW250 19/02 A3030 RMK AO2 SLP260 T01890022 56008
KDTW 022153Z 04009KT 10SM FEW030 FEW250 18/00 A3031 RMK AO2 SLP262 T01780000



Page loaded:  22:50 UTC  |   03:50 PM Pacific  |   04:50 PM Mountain  |   05:50 PM Central  |   06:50 PM Eastern

 

ADVISORIES

FORECASTS

FORECASTS

OBSERVATIONS

USER TOOLS

ABOUT US